Time;durP1;ratioP1;P1;durP2;ratioP2;P2;SDS_P1;SDS_P2;PMS_P1;PMS_P2;Temp;Humidity;BMP_temperature;BMP_pressure;BME280_temperature;BME280_humidity;BME280_pressure;Samples;Min_cycle;Max_cycle;Signal;HPM_P1;HPM_P2
2021/12/16 21:58:46;;;;;;;;;;;10.10;99.90;;;;;;5151307;27;19961;-70
2021/12/16 22:01:12;;;;;;;;;;;10.10;99.90;;;;;;5150714;27;19984;-70
2021/12/16 22:03:40;;;;;;;;;;;10.20;99.90;;;;;;5151498;27;19914;-70
2021/12/16 22:06:06;;;;;;;;;;;10.10;99.90;;;;;;5151331;27;19908;-70
2021/12/16 22:08:32;;;;;;;;;;;10.10;99.90;;;;;;5151528;27;19907;-70
2021/12/16 22:10:58;;;;;;;;;;;;;;;;;;5150805;27;19908;-71
2021/12/16 22:13:24;;;;;;;;;;;10.00;99.90;;;;;;5132915;27;19907;-70
2021/12/16 22:15:50;;;;;;;;;;;10.00;99.90;;;;;;5146745;27;19907;-70
2021/12/16 22:18:17;;;;;;;;;;;10.00;99.90;;;;;;5129694;28;19996;-70
2021/12/16 22:20:44;;;;;;;;;;;10.00;99.90;;;;;;5130696;28;19908;-70
2021/12/16 22:23:12;;;;;;;;;;;10.10;99.90;;;;;;5129829;28;19911;-70
2021/12/16 22:25:38;;;;;;;;;;;10.00;99.90;;;;;;5138232;27;19907;-70
2021/12/16 22:28:04;;;;;;;;;;;10.00;99.90;;;;;;5150262;27;19963;-70
2021/12/16 22:30:29;;;;;;;;;;;10.10;99.90;;;;;;5151208;27;20013;-70
2021/12/16 22:32:56;;;;;;;;;;;;;;;;;;5150876;27;19958;-73
2021/12/16 22:35:22;;;;;;;;;;;10.10;99.90;;;;;;5150405;27;20048;-70
2021/12/16 22:37:48;;;;;;;;;;;10.10;99.90;;;;;;5150698;27;20390;-70
2021/12/16 22:40:17;;;;;;;;;;;10.10;99.90;;;;;;5150209;27;19908;-70
2021/12/16 22:42:42;;;;;;;;;;;10.10;99.90;;;;;;5150936;27;19914;-70
2021/12/16 22:45:08;;;;;;;;;;;10.10;99.90;;;;;;5148428;27;19911;-70
2021/12/16 22:47:34;;;;;;;;;;;10.10;99.90;;;;;;5130136;28;19908;-70
2021/12/16 22:50:00;;;;;;;;;;;;;;;;;;5111066;28;19908;-72
2021/12/16 22:52:25;;;;;;;;;;;10.10;99.90;;;;;;5130342;28;19986;-70
2021/12/16 22:54:51;;;;;;;;;;;10.20;99.90;;;;;;5113344;27;19915;-70
2021/12/16 22:57:16;;;;;;;;;;;10.10;99.90;;;;;;5149226;27;20545;-70
2021/12/16 22:59:42;;;;;;;;;;;10.00;99.90;;;;;;5132106;27;19912;-70
2021/12/16 23:02:10;;;;;;;;;;;10.00;99.90;;;;;;5149735;27;20305;-70
2021/12/16 23:04:35;;;;;;;;;;;10.00;99.90;;;;;;5150541;27;19907;-70
2021/12/16 23:07:01;;;;;;;;;;;;;;;;;;5149724;27;19907;-70
2021/12/16 23:09:27;;;;;;;;;;;10.00;99.90;;;;;;5138582;27;19960;-70
2021/12/16 23:11:52;;;;;;;;;;;10.00;99.90;;;;;;5136454;27;20336;-69
2021/12/16 23:14:20;;;;;;;;;;;10.00;99.90;;;;;;5135382;27;19963;-70
2021/12/16 23:16:58;;;;;;;;;;;10.00;99.90;;;;;;5121448;27;19960;-69
2021/12/16 23:24:54;;;;;;;;;;;9.90;99.90;;;;;;5115444;28;19914;-70
2021/12/16 23:27:19;;;;;;;;;;;10.00;99.90;;;;;;5114895;28;19911;-70
2021/12/16 23:29:45;;;;;;;;;;;9.90;99.90;;;;;;5097431;28;19912;-69
2021/12/16 23:32:10;;;;;;;;;;;9.70;99.90;;;;;;5114761;28;19939;-69
2021/12/16 23:34:36;;;;;;;;;;;9.70;99.90;;;;;;5115583;28;19908;-69
2021/12/16 23:37:02;;;;;;;;;;;;;;;;;;5096593;28;19937;-72
2021/12/16 23:39:30;;;;;;;;;;;9.70;99.90;;;;;;5115412;28;19912;-69
2021/12/16 23:42:21;;;;;;;;;;;9.70;99.90;;;;;;5115433;28;20007;-69
2021/12/16 23:47:39;;;;;;;;;;;9.70;99.90;;;;;;5114598;27;20724;-69
2021/12/16 23:55:35;;;;;;;;;;;9.60;99.90;;;;;;5123268;27;19914;-69
2021/12/16 23:58:01;;;;;;;;;;;;;;;;;;5134194;27;20359;-72
